createdAt,value
2019-03-22T00:02:00.585Z,80.10
2019-03-22T00:04:29.048Z,80.15
2019-03-22T00:06:57.555Z,80.20
2019-03-22T00:09:26.019Z,80.26
2019-03-22T00:11:54.550Z,80.26
2019-03-22T00:14:23.063Z,80.27
2019-03-22T00:16:51.536Z,80.38
2019-03-22T00:19:20.004Z,80.49
2019-03-22T00:21:48.477Z,80.54
2019-03-22T00:24:16.940Z,80.49
2019-03-22T00:26:45.478Z,80.59
2019-03-22T00:29:13.969Z,80.75
2019-03-22T00:31:42.434Z,80.82
2019-03-22T00:34:10.889Z,80.88
2019-03-22T00:36:39.386Z,80.94
2019-03-22T00:39:07.937Z,81.01
2019-03-22T00:41:36.396Z,81.08
2019-03-22T00:44:04.909Z,81.24
2019-03-22T00:46:33.385Z,81.30
2019-03-22T00:49:01.859Z,81.35
2019-03-22T00:51:30.346Z,81.43
2019-03-22T00:53:58.797Z,81.46
2019-03-22T00:56:27.268Z,81.36
2019-03-22T00:58:55.769Z,81.52
2019-03-22T01:01:24.301Z,81.58
2019-03-22T01:03:52.769Z,81.80
2019-03-22T01:06:21.272Z,81.72
2019-03-22T01:08:49.736Z,81.93
2019-03-22T01:11:18.198Z,81.92
2019-03-22T01:13:46.683Z,82.03
2019-03-22T01:16:15.153Z,82.18
2019-03-22T01:18:43.608Z,82.12
2019-03-22T01:21:12.120Z,82.10
2019-03-22T01:23:40.587Z,82.01
2019-03-22T01:26:09.056Z,82.00
2019-03-22T01:28:38.588Z,82.01
2019-03-22T01:31:07.051Z,82.11
2019-03-22T01:33:35.521Z,82.13
2019-03-22T01:36:04.199Z,82.15
2019-03-22T01:38:32.715Z,82.16
2019-03-22T01:41:01.176Z,82.05
2019-03-22T01:43:29.684Z,82.02
2019-03-22T01:45:58.157Z,82.04
2019-03-22T01:48:26.617Z,82.09
2019-03-22T01:50:55.116Z,82.12
2019-03-22T01:53:23.574Z,82.12
2019-03-22T01:55:52.025Z,82.08
2019-03-22T01:58:20.603Z,82.07
2019-03-22T02:00:49.065Z,82.04
2019-03-22T02:03:17.529Z,82.06
2019-03-22T02:05:46.035Z,82.05
2019-03-22T02:08:14.535Z,82.05
2019-03-22T02:10:43.002Z,82.11
2019-03-22T02:13:11.502Z,82.14
2019-03-22T02:15:39.963Z,82.17
2019-03-22T02:18:08.592Z,82.11
2019-03-22T02:20:37.093Z,82.11
2019-03-22T02:23:05.544Z,82.07
2019-03-22T02:25:33.993Z,82.07
2019-03-22T02:28:04.428Z,82.24
2019-03-22T02:30:32.951Z,82.20
2019-03-22T02:33:01.491Z,82.05
2019-03-22T02:35:29.999Z,81.94
2019-03-22T02:37:58.449Z,81.96
2019-03-22T02:40:26.920Z,81.98
2019-03-22T02:42:55.493Z,81.87
2019-03-22T02:45:23.967Z,81.71
2019-03-22T02:47:52.435Z,81.56
2019-03-22T02:50:20.917Z,81.50
2019-03-22T02:52:49.397Z,81.61
2019-03-22T02:55:17.881Z,81.79
2019-03-22T02:57:46.474Z,81.77
2019-03-22T03:00:16.470Z,81.83
2019-03-22T03:02:45.138Z,81.91
2019-03-22T03:05:15.169Z,81.87
2019-03-22T03:07:43.781Z,81.92
2019-03-22T03:10:16.390Z,81.91
2019-03-22T03:12:45.275Z,81.97
2019-03-22T03:15:16.764Z,82.07
2019-03-22T03:17:45.366Z,82.14
2019-03-22T03:20:15.314Z,82.30
2019-03-22T03:22:43.775Z,82.38
2019-03-22T03:25:12.980Z,82.37
2019-03-22T03:27:41.466Z,82.42
2019-03-22T03:30:20.564Z,82.36
2019-03-22T03:32:49.333Z,82.39
2019-03-22T03:35:18.724Z,82.48
2019-03-22T03:37:47.264Z,82.64
2019-03-22T03:40:16.299Z,82.70
2019-03-22T03:42:44.774Z,82.72
2019-03-22T03:45:37.583Z,82.69
2019-03-22T03:48:08.587Z,82.61
2019-03-22T03:50:37.175Z,82.57
2019-03-22T03:53:06.441Z,82.49
2019-03-22T03:55:34.911Z,82.54
2019-03-22T03:58:03.546Z,82.52
2019-03-22T04:00:32.047Z,82.61
2019-03-22T04:03:00.525Z,82.55
2019-03-22T04:05:29.060Z,82.41
2019-03-22T04:07:57.562Z,82.55
2019-03-22T04:10:26.095Z,82.59
2019-03-22T04:12:54.559Z,82.76
2019-03-22T04:15:23.057Z,82.82
2019-03-22T04:17:51.546Z,82.88
2019-03-22T04:20:20.001Z,82.95
2019-03-22T04:22:48.529Z,82.99
2019-03-22T04:25:17.009Z,82.96
2019-03-22T04:27:45.504Z,83.15
2019-03-22T04:30:14.072Z,83.36
2019-03-22T04:32:42.583Z,83.53
2019-03-22T04:35:12.180Z,83.57
2019-03-22T04:37:40.692Z,83.69
2019-03-22T04:40:25.797Z,83.92
2019-03-22T04:42:54.288Z,83.97
2019-03-22T04:45:23.204Z,83.80
2019-03-22T04:48:02.828Z,83.82
2019-03-22T04:50:32.560Z,83.84
2019-03-22T04:53:01.092Z,84.06
2019-03-22T04:55:29.784Z,84.08
2019-03-22T04:57:58.993Z,83.97
2019-03-22T05:00:27.613Z,83.81
2019-03-22T05:02:56.197Z,83.74
2019-03-22T05:05:25.129Z,83.75
2019-03-22T05:07:53.662Z,83.70
2019-03-22T05:10:23.155Z,83.70
2019-03-22T05:12:52.494Z,83.74
2019-03-22T05:15:22.044Z,83.81
2019-03-22T05:17:50.543Z,83.60
2019-03-22T05:20:20.459Z,83.53
2019-03-22T05:22:51.067Z,83.56
2019-03-22T05:25:20.617Z,83.54
2019-03-22T05:27:49.989Z,83.61
2019-03-22T05:30:56.933Z,83.68
2019-03-22T05:33:25.382Z,83.67
2019-03-22T05:35:53.864Z,83.61
2019-03-22T05:38:24.119Z,83.61
2019-03-22T05:40:52.590Z,83.66
2019-03-22T05:43:21.091Z,84.00
2019-03-22T05:45:49.605Z,84.32
2019-03-22T05:48:18.089Z,84.47
2019-03-22T05:50:46.547Z,84.60
2019-03-22T05:53:15.080Z,84.61
2019-03-22T05:55:43.556Z,84.85
2019-03-22T05:58:12.036Z,84.86
2019-03-22T06:00:40.534Z,85.13
2019-03-22T06:03:09.136Z,85.41
2019-03-22T06:05:37.610Z,85.68
2019-03-22T06:08:06.292Z,85.55
2019-03-22T06:10:34.763Z,85.70
2019-03-22T06:13:03.240Z,85.76
2019-03-22T06:15:31.736Z,86.01
2019-03-22T06:18:00.216Z,85.92
2019-03-22T06:20:28.690Z,85.79
2019-03-22T06:22:57.191Z,85.82
2019-03-22T06:25:25.675Z,85.98
2019-03-22T06:27:54.135Z,86.22
2019-03-22T06:30:22.673Z,86.33
2019-03-22T06:32:51.154Z,86.55
2019-03-22T06:35:19.625Z,86.54
2019-03-22T06:37:48.123Z,86.51
2019-03-22T06:40:16.707Z,86.14
2019-03-22T06:42:45.165Z,86.01
2019-03-22T06:45:13.851Z,85.71
2019-03-22T06:47:42.322Z,85.34
2019-03-22T06:50:11.199Z,85.09
2019-03-22T06:52:39.689Z,84.85
2019-03-22T06:55:08.320Z,84.87
2019-03-22T06:57:36.797Z,85.08
2019-03-22T07:00:07.710Z,85.12
2019-03-22T07:02:36.190Z,84.93
2019-03-22T07:05:06.503Z,84.87
2019-03-22T07:07:35.017Z,84.79
2019-03-22T07:10:05.228Z,84.72
2019-03-22T07:12:33.712Z,84.71
2019-03-22T07:15:02.210Z,84.78
2019-03-22T07:17:30.675Z,84.92
2019-03-22T07:19:59.138Z,84.90
2019-03-22T07:22:27.651Z,85.07
2019-03-22T07:24:56.116Z,85.10
2019-03-22T07:27:24.805Z,85.12
2019-03-22T07:29:53.301Z,85.04
2019-03-22T07:32:21.768Z,84.64
2019-03-22T07:34:50.245Z,84.51
2019-03-22T07:37:18.780Z,84.54
2019-03-22T07:39:47.396Z,84.54
2019-03-22T07:42:17.558Z,84.57
2019-03-22T07:44:46.355Z,84.31
2019-03-22T07:47:14.816Z,84.48
2019-03-22T07:49:43.302Z,84.38
2019-03-22T07:52:11.811Z,84.16
2019-03-22T07:54:40.280Z,83.99
2019-03-22T07:57:08.757Z,84.27
2019-03-22T07:59:37.263Z,84.28
2019-03-22T08:02:05.806Z,84.19
2019-03-22T08:04:34.280Z,84.16
2019-03-22T08:07:02.855Z,84.22
2019-03-22T08:09:31.338Z,84.25
2019-03-22T08:11:59.975Z,84.13
2019-03-22T08:14:28.491Z,83.97
2019-03-22T08:16:56.954Z,83.84
2019-03-22T08:19:25.436Z,83.90
2019-03-22T08:21:53.950Z,83.99
2019-03-22T08:24:22.429Z,83.60
2019-03-22T08:26:50.943Z,83.55
2019-03-22T08:29:19.430Z,83.27
2019-03-22T08:31:47.884Z,83.41
2019-03-22T08:34:16.411Z,83.22
2019-03-22T08:36:44.938Z,82.95
2019-03-22T08:39:13.438Z,82.75
2019-03-22T08:41:41.892Z,82.18
2019-03-22T08:44:10.626Z,82.19
2019-03-22T08:46:39.287Z,82.14
2019-03-22T08:49:09.488Z,81.67
2019-03-22T08:51:37.970Z,81.52
2019-03-22T08:54:06.513Z,81.31
2019-03-22T08:56:36.210Z,81.35
2019-03-22T08:59:04.917Z,81.41
2019-03-22T09:01:33.443Z,80.96
2019-03-22T09:04:01.943Z,80.82
2019-03-22T09:06:30.524Z,80.83
2019-03-22T09:08:58.952Z,80.74
2019-03-22T09:11:27.432Z,80.97
2019-03-22T09:13:55.931Z,81.19
2019-03-22T09:16:24.415Z,81.08
2019-03-22T09:18:52.883Z,80.90
2019-03-22T09:21:21.463Z,80.35
2019-03-22T09:23:50.009Z,79.96
2019-03-22T09:26:20.074Z,79.82
2019-03-22T09:28:48.889Z,79.50
2019-03-22T09:31:17.355Z,79.00
2019-03-22T09:33:45.871Z,78.87
2019-03-22T09:36:14.410Z,78.60
2019-03-22T09:38:44.611Z,77.96
2019-03-22T09:41:13.074Z,77.50
2019-03-22T09:43:41.557Z,77.07
2019-03-22T09:46:11.119Z,76.60
2019-03-22T09:48:39.615Z,76.67
2019-03-22T09:51:08.085Z,76.45
2019-03-22T09:53:36.636Z,76.15
2019-03-22T09:56:05.130Z,75.92
2019-03-22T09:58:33.601Z,75.78
2019-03-22T10:01:02.137Z,75.94
2019-03-22T10:03:30.670Z,76.09
2019-03-22T10:05:59.136Z,75.96
2019-03-22T10:08:27.620Z,75.54
2019-03-22T10:10:56.148Z,75.58
2019-03-22T10:13:24.636Z,75.33
2019-03-22T10:15:53.102Z,75.50
2019-03-22T10:18:21.618Z,75.25
2019-03-22T10:20:50.087Z,75.22
2019-03-22T10:23:18.566Z,75.35
2019-03-22T10:25:47.060Z,74.98
2019-03-22T10:28:15.561Z,74.86
2019-03-22T10:30:44.056Z,74.64
2019-03-22T10:33:22.102Z,74.42
2019-03-22T10:35:42.749Z,74.33
2019-03-22T10:38:16.434Z,74.02
2019-03-22T10:40:41.451Z,73.83
2019-03-22T10:43:09.909Z,73.41
2019-03-22T10:45:38.369Z,73.36
2019-03-22T10:48:07.100Z,73.36
2019-03-22T10:50:35.595Z,73.02
2019-03-22T10:53:04.092Z,72.78
2019-03-22T10:55:35.356Z,72.33
2019-03-22T10:58:02.745Z,72.47
2019-03-22T11:00:31.219Z,72.80
2019-03-22T11:02:59.814Z,72.69
2019-03-22T11:05:28.274Z,72.76
2019-03-22T11:07:56.781Z,72.95
2019-03-22T11:10:25.449Z,72.92
2019-03-22T11:12:53.927Z,72.83
2019-03-22T11:15:23.981Z,72.65
2019-03-22T11:17:52.813Z,72.43
2019-03-22T11:20:21.272Z,72.36
2019-03-22T11:22:49.745Z,72.39
2019-03-22T11:25:18.263Z,72.37
2019-03-22T11:27:46.740Z,72.44
2019-03-22T11:30:19.291Z,72.72
2019-03-22T11:32:47.881Z,72.42
2019-03-22T11:35:16.420Z,72.01
2019-03-22T11:37:44.897Z,72.08
2019-03-22T11:40:15.643Z,71.99
2019-03-22T11:42:44.115Z,72.07
2019-03-22T11:45:18.767Z,71.87
2019-03-22T11:47:47.339Z,71.60
2019-03-22T11:50:16.169Z,71.46
2019-03-22T11:52:44.697Z,71.44
2019-03-22T11:55:14.441Z,71.09
2019-03-22T11:57:42.914Z,70.87
2019-03-22T12:00:17.059Z,70.77
2019-03-22T12:02:45.578Z,70.83
2019-03-22T12:05:15.098Z,70.76
2019-03-22T12:07:43.571Z,70.50
2019-03-22T12:10:14.684Z,70.32
2019-03-22T12:12:43.224Z,70.27
2019-03-22T12:15:14.144Z,70.36
2019-03-22T12:17:42.631Z,70.19
2019-03-22T12:20:22.187Z,70.07
2019-03-22T12:22:50.834Z,70.05
2019-03-22T12:25:24.460Z,69.93
2019-03-22T12:27:52.928Z,69.95
2019-03-22T12:30:21.539Z,69.90
2019-03-22T12:32:50.018Z,69.76
2019-03-22T12:35:18.863Z,69.62
2019-03-22T12:37:47.373Z,69.87
2019-03-22T12:40:22.910Z,69.85
2019-03-22T12:42:51.418Z,69.91
2019-03-22T12:45:28.194Z,69.64
2019-03-22T12:47:56.770Z,69.55
2019-03-22T12:50:25.662Z,69.31
2019-03-22T12:52:54.137Z,69.09
2019-03-22T12:55:22.639Z,68.99
2019-03-22T12:57:51.178Z,68.79
2019-03-22T13:00:23.539Z,68.59
2019-03-22T13:02:52.429Z,68.00
2019-03-22T13:05:22.063Z,67.61
2019-03-22T13:07:50.877Z,67.67
2019-03-22T13:10:27.427Z,67.91
2019-03-22T13:12:56.029Z,67.90
2019-03-22T13:15:24.494Z,67.86
2019-03-22T13:17:53.020Z,67.98
2019-03-22T13:20:21.628Z,67.88
2019-03-22T13:22:50.098Z,67.79
2019-03-22T13:25:21.209Z,67.36
2019-03-22T13:27:49.850Z,67.58
2019-03-22T13:30:30.546Z,67.76
2019-03-22T13:32:59.174Z,67.79
2019-03-22T13:35:27.723Z,67.37
2019-03-22T13:37:56.382Z,67.13
2019-03-22T13:40:24.849Z,66.97
2019-03-22T13:42:53.397Z,66.81
2019-03-22T13:45:21.968Z,66.94
2019-03-22T13:47:50.484Z,67.38
2019-03-22T13:50:18.996Z,67.49
2019-03-22T13:52:48.573Z,67.45
2019-03-22T13:55:17.041Z,67.23
2019-03-22T13:57:45.510Z,67.04
2019-03-22T14:00:18.128Z,66.89
2019-03-22T14:02:46.596Z,66.88
2019-03-22T14:05:15.215Z,66.96
2019-03-22T14:07:43.803Z,66.79
2019-03-22T14:10:31.345Z,66.61
2019-03-22T14:13:01.073Z,66.59
2019-03-22T14:15:29.927Z,66.92
2019-03-22T14:17:58.860Z,67.26
2019-03-22T14:20:27.363Z,67.46
2019-03-22T14:22:55.908Z,67.71
2019-03-22T14:25:24.397Z,67.91
2019-03-22T14:27:53.822Z,67.91
2019-03-22T14:30:22.283Z,68.24
2019-03-22T14:32:50.753Z,68.36
2019-03-22T14:35:19.265Z,68.21
2019-03-22T14:37:47.751Z,68.20
2019-03-22T14:40:16.305Z,68.10
2019-03-22T14:42:44.847Z,68.08
2019-03-22T14:45:14.873Z,68.09
2019-03-22T14:47:43.713Z,67.96
2019-03-22T14:50:12.293Z,68.02
2019-03-22T14:52:40.755Z,67.84
2019-03-22T14:55:09.448Z,67.98
2019-03-22T14:57:47.836Z,68.20
2019-03-22T15:00:10.590Z,68.50
2019-03-22T15:02:39.059Z,68.63
2019-03-22T15:05:07.621Z,68.69
2019-03-22T15:07:36.098Z,68.69
2019-03-22T15:10:07.402Z,68.78
2019-03-22T15:12:35.920Z,68.55
2019-03-22T15:15:08.447Z,68.27
2019-03-22T15:17:38.594Z,68.05
2019-03-22T15:20:12.141Z,67.89
2019-03-22T15:22:47.973Z,67.94
2019-03-22T15:25:20.562Z,68.12
2019-03-22T15:28:08.925Z,68.18
2019-03-22T15:30:57.243Z,68.22
2019-03-22T15:33:43.583Z,68.33
2019-03-22T15:36:25.780Z,68.49
2019-03-22T15:38:56.063Z,68.53
2019-03-22T15:41:24.557Z,68.79
2019-03-22T15:43:53.086Z,69.11
2019-03-22T15:46:21.601Z,69.27
2019-03-22T15:48:50.103Z,69.43
2019-03-22T15:51:18.611Z,69.52
2019-03-22T15:53:47.082Z,69.57
2019-03-22T15:56:16.587Z,69.54
2019-03-22T15:58:45.100Z,69.33
2019-03-22T16:01:13.582Z,69.57
2019-03-22T16:03:44.434Z,69.71
2019-03-22T16:06:12.360Z,69.95
2019-03-22T16:08:40.853Z,70.29
2019-03-22T16:11:09.350Z,70.60
2019-03-22T16:13:37.843Z,70.85
2019-03-22T16:16:06.302Z,71.04
2019-03-22T16:18:34.756Z,71.12
2019-03-22T16:21:03.270Z,71.15
2019-03-22T16:23:31.731Z,71.31
2019-03-22T16:26:00.199Z,71.48
2019-03-22T16:28:28.701Z,71.55
2019-03-22T16:30:57.183Z,71.60
2019-03-22T16:33:25.654Z,71.65
2019-03-22T16:35:54.173Z,71.71
2019-03-22T16:38:22.790Z,71.84
2019-03-22T16:40:51.251Z,71.95
2019-03-22T16:43:19.742Z,72.01
2019-03-22T16:45:48.217Z,72.06
2019-03-22T16:48:16.678Z,72.15
2019-03-22T16:50:45.172Z,72.16
2019-03-22T16:53:13.646Z,72.23
2019-03-22T16:55:42.110Z,72.39
2019-03-22T16:58:10.635Z,72.58
2019-03-22T17:00:39.091Z,72.94
2019-03-22T17:03:07.631Z,73.22
2019-03-22T17:05:36.133Z,73.34
2019-03-22T17:08:04.769Z,73.45
2019-03-22T17:10:33.241Z,73.56
2019-03-22T17:13:01.751Z,73.72
2019-03-22T17:15:30.230Z,73.88
2019-03-22T17:17:58.688Z,73.86
2019-03-22T17:20:27.192Z,73.90
2019-03-22T17:22:55.659Z,74.01
2019-03-22T17:25:24.134Z,74.08
2019-03-22T17:27:52.624Z,74.26
2019-03-22T17:30:21.653Z,74.31
2019-03-22T17:32:50.133Z,74.55
2019-03-22T17:35:18.642Z,74.58
2019-03-22T17:37:47.112Z,74.79
2019-03-22T17:40:15.652Z,74.91
2019-03-22T17:42:44.170Z,75.03
2019-03-22T17:45:15.628Z,75.06
2019-03-22T17:47:44.147Z,75.16
2019-03-22T17:50:13.783Z,75.19
2019-03-22T17:52:42.326Z,75.26
2019-03-22T17:55:11.537Z,75.40
2019-03-22T17:57:41.006Z,75.34
2019-03-22T18:00:30.384Z,75.35
2019-03-22T18:02:58.887Z,75.39
2019-03-22T18:05:27.354Z,75.37
2019-03-22T18:07:55.821Z,75.37
2019-03-22T18:10:24.341Z,75.53
2019-03-22T18:12:52.818Z,75.65
2019-03-22T18:15:21.279Z,75.85
2019-03-22T18:17:49.818Z,75.85
2019-03-22T18:20:18.271Z,75.99
2019-03-22T18:22:46.743Z,75.93
2019-03-22T18:25:15.945Z,76.12
2019-03-22T18:27:44.364Z,76.25
2019-03-22T18:30:14.060Z,76.37
2019-03-22T18:32:42.546Z,76.42
2019-03-22T18:35:11.083Z,76.50
2019-03-22T18:37:39.544Z,76.61
2019-03-22T18:40:12.759Z,76.69
2019-03-22T18:42:41.230Z,76.68
2019-03-22T18:45:11.952Z,76.44
2019-03-22T18:47:41.193Z,76.46
2019-03-22T18:50:10.887Z,76.64
2019-03-22T18:52:39.381Z,76.82
2019-03-22T18:55:08.211Z,76.83
2019-03-22T18:57:36.753Z,76.81
2019-03-22T19:00:08.642Z,76.81
2019-03-22T19:02:37.174Z,76.81
2019-03-22T19:05:07.488Z,76.95
2019-03-22T19:07:35.968Z,77.08
2019-03-22T19:10:15.290Z,77.30
2019-03-22T19:12:43.769Z,77.38
2019-03-22T19:15:13.499Z,77.46
2019-03-22T19:17:42.074Z,77.51
2019-03-22T19:20:14.730Z,77.70
2019-03-22T19:22:43.192Z,77.66
2019-03-22T19:25:14.324Z,77.70
2019-03-22T19:27:42.354Z,77.77
2019-03-22T19:30:15.733Z,77.70
2019-03-22T19:32:44.314Z,77.54
2019-03-22T19:35:13.218Z,77.41
2019-03-22T19:37:41.683Z,77.31
2019-03-22T19:40:12.229Z,77.30
2019-03-22T19:42:40.684Z,77.39
2019-03-22T19:45:11.192Z,77.44
2019-03-22T19:47:39.706Z,77.55
2019-03-22T19:50:13.741Z,77.68
2019-03-22T19:52:43.019Z,77.75
2019-03-22T19:55:11.712Z,77.98
2019-03-22T19:57:40.192Z,78.11
2019-03-22T20:00:19.132Z,78.21
2019-03-22T20:02:49.297Z,78.22
2019-03-22T20:05:29.255Z,78.38
2019-03-22T20:07:57.795Z,78.42
2019-03-22T20:10:26.266Z,78.44
2019-03-22T20:12:54.769Z,78.59
2019-03-22T20:15:23.222Z,78.63
2019-03-22T20:17:51.722Z,78.67
2019-03-22T20:20:20.281Z,78.74
2019-03-22T20:22:48.768Z,78.76
2019-03-22T20:25:17.225Z,78.70
2019-03-22T20:27:45.752Z,78.77
2019-03-22T20:30:18.588Z,78.87
2019-03-22T20:32:47.047Z,78.96
2019-03-22T20:35:17.070Z,78.97
2019-03-22T20:37:45.682Z,79.09
2019-03-22T20:40:16.243Z,79.19
2019-03-22T20:42:44.790Z,79.18
2019-03-22T20:45:23.531Z,79.21
2019-03-22T20:47:43.625Z,79.36
2019-03-22T20:50:12.202Z,79.36
2019-03-22T20:52:40.687Z,79.34
2019-03-22T20:55:09.902Z,79.32
2019-03-22T20:57:38.423Z,79.26
2019-03-22T21:00:12.678Z,79.40
2019-03-22T21:02:41.332Z,79.44
2019-03-22T21:05:10.461Z,79.57
2019-03-22T21:07:38.915Z,79.60
2019-03-22T21:10:08.604Z,79.71
2019-03-22T21:12:37.121Z,79.88
2019-03-22T21:15:08.282Z,79.91
2019-03-22T21:17:36.762Z,80.10
2019-03-22T21:20:09.713Z,80.19
2019-03-22T21:22:38.357Z,80.38
2019-03-22T21:25:11.012Z,80.53
2019-03-22T21:27:39.523Z,80.68
2019-03-22T21:30:15.398Z,80.72
2019-03-22T21:32:45.475Z,80.86
2019-03-22T21:35:22.627Z,81.01
2019-03-22T21:37:44.400Z,81.25
2019-03-22T21:40:12.944Z,81.28
2019-03-22T21:42:41.467Z,81.49
2019-03-22T21:45:11.066Z,81.72
2019-03-22T21:47:40.102Z,81.77
2019-03-22T21:50:11.722Z,81.95
2019-03-22T21:52:40.183Z,81.90
2019-03-22T21:55:09.183Z,81.94
2019-03-22T21:57:37.672Z,82.02
2019-03-22T22:00:08.992Z,82.01
2019-03-22T22:02:37.466Z,81.84
2019-03-22T22:05:07.523Z,81.75
2019-03-22T22:07:36.002Z,81.74
2019-03-22T22:10:09.327Z,81.70
2019-03-22T22:12:38.028Z,81.67
2019-03-22T22:15:09.575Z,81.69
2019-03-22T22:17:39.328Z,81.72
2019-03-22T22:20:07.968Z,81.85
2019-03-22T22:22:36.431Z,82.15
2019-03-22T22:25:06.796Z,82.12
2019-03-22T22:27:35.489Z,82.20
2019-03-22T22:30:08.968Z,82.26
2019-03-22T22:32:37.447Z,82.34
2019-03-22T22:35:07.692Z,82.34
2019-03-22T22:37:36.156Z,82.42
2019-03-22T22:40:12.282Z,82.51
2019-03-22T22:42:40.748Z,82.57
2019-03-22T22:45:10.905Z,82.63
2019-03-22T22:47:39.464Z,82.94
2019-03-22T22:50:11.782Z,83.17
2019-03-22T22:52:40.236Z,83.24
2019-03-22T22:55:10.041Z,83.43
2019-03-22T22:57:38.497Z,83.51
2019-03-22T23:00:15.337Z,83.67
2019-03-22T23:02:44.458Z,83.67
2019-03-22T23:05:14.027Z,83.74
2019-03-22T23:07:42.847Z,83.86
2019-03-22T23:10:12.837Z,83.84
2019-03-22T23:12:42.049Z,83.87
2019-03-22T23:15:10.905Z,84.03
2019-03-22T23:17:39.372Z,84.14
2019-03-22T23:20:09.813Z,84.26
2019-03-22T23:22:38.282Z,84.28
2019-03-22T23:25:07.419Z,84.42
2019-03-22T23:27:36.869Z,84.56
2019-03-22T23:30:07.368Z,84.50
2019-03-22T23:32:35.864Z,84.50
2019-03-22T23:35:05.881Z,84.66
2019-03-22T23:37:34.357Z,84.92
2019-03-22T23:40:03.086Z,85.10
2019-03-22T23:42:31.596Z,85.41
2019-03-22T23:45:00.172Z,85.42
2019-03-22T23:47:28.724Z,85.36
2019-03-22T23:49:57.224Z,85.27
2019-03-22T23:52:25.687Z,85.35
2019-03-22T23:54:54.148Z,85.23
2019-03-22T23:57:22.657Z,85.35
2019-03-22T23:59:51.119Z,85.27
